Time;durP1;ratioP1;P1;durP2;ratioP2;P2;SDS_P1;SDS_P2;PMS_P1;PMS_P2;Temp;Humidity;BMP_temperature;BMP_pressure;BME280_temperature;BME280_humidity;BME280_pressure;Samples;Min_cycle;Max_cycle;Signal;HPM_P1;HPM_P2
2021/06/21 00:00:58;;;;;;;5.95;1.33;;;;;;;34.34;28.01;97661.13;5028374;28;20033;-86
2021/06/21 00:03:24;;;;;;;1.67;1.30;;;;;;;34.34;27.81;97657.50;5029277;28;20108;-85
2021/06/21 00:05:51;;;;;;;1.20;1.10;;;;;;;34.29;27.54;97658.25;5023204;28;20049;-85
2021/06/21 00:08:17;;;;;;;1.27;1.00;;;;;;;34.40;27.78;97653.38;5023757;28;20080;-85
2021/06/21 00:10:43;;;;;;;3.92;1.10;;;;;;;34.13;28.08;97656.94;5021964;28;20033;-85
2021/06/21 00:13:10;;;;;;;4.35;1.20;;;;;;;34.07;28.32;97656.16;5021652;28;20037;-85
2021/06/21 00:15:36;;;;;;;3.55;1.20;;;;;;;34.08;28.27;97649.16;5016433;28;20025;-85
2021/06/21 00:18:03;;;;;;;1.65;1.23;;;;;;;34.51;27.61;97642.00;5022363;28;20076;-84
2021/06/21 00:20:30;;;;;;;1.38;1.13;;;;;;;34.91;26.97;97642.84;5025283;28;20098;-85
2021/06/21 00:22:56;;;;;;;0.95;0.93;;;;;;;35.13;26.33;97639.97;5027055;28;20032;-84
2021/06/21 00:25:23;;;;;;;2.10;1.13;;;;;;;35.37;26.24;97638.13;5026107;28;20516;-85
2021/06/21 00:27:50;;;;;;;2.03;0.95;;;;;;;35.50;25.43;97634.75;5029391;28;20091;-85
2021/06/21 00:30:18;;;;;;;2.85;1.50;;;;;;;35.15;26.74;97629.59;5022835;28;20401;-85
2021/06/21 00:32:45;;;;;;;1.08;1.08;;;;;;;34.35;27.91;97634.22;5025140;28;20486;-85
2021/06/21 00:35:12;;;;;;;1.20;1.10;;;;;;;34.29;27.72;97624.84;5023154;28;20448;-85
2021/06/21 00:37:39;;;;;;;1.40;1.15;;;;;;;34.33;27.80;97625.38;5022792;28;20033;-85
2021/06/21 00:40:08;;;;;;;1.33;1.23;;;;;;;34.44;27.08;97619.69;5027183;28;20132;-85
2021/06/21 00:42:36;;;;;;;0.80;0.80;;;;;;;34.45;27.21;97615.53;5020724;28;20026;-85
2021/06/21 00:45:03;;;;;;;1.30;1.05;;;;;;;34.47;27.25;97618.66;5031544;28;20397;-84
2021/06/21 00:47:29;;;;;;;1.45;1.05;;;;;;;34.58;27.24;97615.84;5053434;28;20462;-85
2021/06/21 00:49:55;;;;;;;1.15;1.10;;;;;;;34.65;26.47;97603.16;5055917;28;20026;-85
2021/06/21 00:52:22;;;;;;;2.75;1.02;;;;;;;34.61;26.87;97611.19;5031839;28;20041;-85
2021/06/21 00:54:59;;;;;;;0.88;0.88;;;;;;;34.59;27.07;97614.53;5025477;28;20490;-85
2021/06/21 00:57:26;;;;;;;3.35;1.13;;;;;;;34.56;26.96;97606.25;5024648;28;20037;-85
2021/06/21 00:59:54;;;;;;;1.35;0.80;;;;;;;34.52;27.36;97597.13;5026025;28;20121;-85
2021/06/21 01:02:21;;;;;;;1.10;1.00;;;;;;;34.47;27.10;97592.97;5029295;28;20025;-84
2021/06/21 01:04:47;;;;;;;2.08;1.17;;;;;;;34.43;26.98;97589.63;5028569;28;20070;-84
2021/06/21 01:07:13;;;;;;;3.65;1.13;;;;;;;34.37;27.28;97591.69;5022678;28;20091;-84
2021/06/21 01:09:40;;;;;;;1.23;1.13;;;;;;;34.41;27.20;97592.22;5023715;28;20056;-85
2021/06/21 01:12:20;;;;;;;2.22;0.93;;;;;;;34.49;26.88;97590.41;5026973;28;20035;-84
2021/06/21 01:14:59;;;;;;;0.80;0.80;;;;;;;34.61;26.73;97580.59;5024897;28;20478;-85
2021/06/21 01:17:48;;;;;;;1.45;1.05;;;;;;;34.56;26.96;97581.38;5023070;28;20517;-85
2021/06/21 01:20:53;;;;;;;2.13;1.50;;;;;;;33.89;28.37;97577.56;5027399;28;20429;-84
2021/06/21 01:24:13;;;;;;;2.30;1.08;;;;;;;33.53;28.89;97575.63;5019010;28;20095;-85
2021/06/21 01:26:48;;;;;;;1.23;1.13;;;;;;;33.78;28.78;97560.44;4963102;28;20135;-86
2021/06/21 01:29:42;;;;;;;1.42;1.00;;;;;;;33.64;29.06;97561.44;5006452;28;20115;-85
2021/06/21 01:32:16;;;;;;;1.67;1.00;;;;;;;33.55;29.14;97561.66;5018134;28;20113;-85
2021/06/21 01:34:51;;;;;;;1.60;1.10;;;;;;;33.33;29.13;97568.00;5028276;28;20037;-85
2021/06/21 01:37:20;;;;;;;2.13;1.25;;;;;;;33.03;29.82;97557.47;5024174;28;20397;-85
2021/06/21 01:39:51;;;;;;;5.53;1.35;;;;;;;32.82;30.04;97547.47;5027248;28;20389;-84
2021/06/21 01:42:20;;;;;;;3.80;1.50;;;;;;;32.64;30.35;97548.66;5022250;28;20083;-85
2021/06/21 01:45:06;;;;;;;2.03;1.10;;;;;;;32.97;30.03;97554.59;5048071;28;20083;-85
2021/06/21 01:47:34;;;;;;;1.13;1.02;;;;;;;33.30;29.37;97548.34;5025138;28;20034;-85
2021/06/21 01:50:01;;;;;;;1.65;1.23;;;;;;;33.66;28.75;97546.69;5061297;28;20045;-85
2021/06/21 01:52:34;;;;;;;1.08;1.00;;;;;;;34.11;27.34;97548.38;5028181;28;20040;-84
2021/06/21 01:55:02;;;;;;;2.10;1.20;;;;;;;34.29;27.64;97556.44;5029883;28;20385;-85
2021/06/21 01:57:32;;;;;;;5.68;1.52;;;;;;;33.76;28.52;97545.94;5021458;28;20042;-85
2021/06/21 02:00:04;;;;;;;1.35;1.23;;;;;;;33.36;29.15;97546.28;5023645;28;20061;-85
2021/06/21 02:02:32;;;;;;;1.92;1.00;;;;;;;33.21;29.63;97545.69;5024155;28;20044;-84
2021/06/21 02:05:00;;;;;;;1.77;1.35;;;;;;;33.32;29.01;97546.53;5021904;28;20033;-85
2021/06/21 02:07:27;;;;;;;1.95;1.30;;;;;;;33.20;29.41;97550.59;5060140;28;20034;-85
2021/06/21 02:09:54;;;;;;;2.45;1.45;;;;;;;33.00;30.34;97550.69;5023663;28;20037;-85
2021/06/21 02:12:22;;;;;;;1.20;1.10;;;;;;;33.12;29.33;97545.88;5028171;28;20056;-85
2021/06/21 02:14:50;;;;;;;2.83;1.20;;;;;;;33.53;29.11;97549.22;5025741;28;20049;-85
2021/06/21 02:17:20;;;;;;;1.30;1.20;;;;;;;33.68;28.35;97535.56;5027837;28;20489;-85
2021/06/21 02:19:46;;;;;;;3.92;1.10;;;;;;;33.18;29.10;97527.56;5027365;28;20076;-85
2021/06/21 02:22:13;;;;;;;1.48;1.38;;;;;;;32.73;30.29;97528.56;5031647;28;20049;-85
2021/06/21 02:24:40;;;;;;;1.60;1.30;;;;;;;32.52;30.22;97515.75;5025052;28;20033;-86
2021/06/21 02:27:07;;;;;;;1.67;1.58;;;;;;;32.57;30.67;97520.69;5029815;28;20033;-85
2021/06/21 02:29:34;;;;;;;2.25;1.02;;;;;;;32.84;29.61;97508.72;5024217;28;20770;-85
2021/06/21 02:32:00;;;;;;;1.80;1.25;;;;;;;33.29;29.04;97515.44;5018582;28;20034;-85
2021/06/21 02:34:26;;;;;;;2.70;1.33;;;;;;;33.62;28.25;97518.47;5020820;28;20033;-84
2021/06/21 02:36:52;;;;;;;1.63;1.40;;;;;;;33.77;28.06;97521.09;5021964;28;20046;-85
2021/06/21 02:39:18;;;;;;;2.50;1.33;;;;;;;33.97;27.83;97524.50;5023144;28;20018;-85
2021/06/21 02:41:45;;;;;;;1.63;1.45;;;;;;;34.01;27.72;97522.19;5029798;28;20613;-85
2021/06/21 02:44:11;;;;;;;4.50;1.35;;;;;;;34.08;27.46;97518.06;5029615;28;20037;-85
2021/06/21 02:46:37;;;;;;;2.30;1.30;;;;;;;34.05;27.73;97516.28;5032131;28;20112;-85
2021/06/21 02:49:04;;;;;;;1.08;1.00;;;;;;;33.25;29.29;97521.41;5030834;28;20037;-85
2021/06/21 02:51:35;;;;;;;2.35;1.33;;;;;;;32.95;29.97;97517.34;5029677;28;20084;-85
2021/06/21 02:54:22;;;;;;;2.05;1.55;;;;;;;32.93;29.61;97514.19;5023917;28;20053;-85
2021/06/21 02:57:16;;;;;;;1.38;1.27;;;;;;;33.22;29.65;97524.47;5024324;28;20042;-85
2021/06/21 02:59:44;;;;;;;2.33;1.50;;;;;;;33.25;29.63;97524.25;5024136;28;20038;-84
2021/06/21 03:02:14;;;;;;;1.45;1.35;;;;;;;33.32;28.90;97518.06;5030949;28;20056;-84
2021/06/21 03:04:42;;;;;;;1.63;1.40;;;;;;;33.05;29.85;97523.63;5027697;28;20086;-85
2021/06/21 03:07:11;;;;;;;1.33;1.23;;;;;;;33.20;29.61;97522.16;5027661;28;20044;-85
2021/06/21 03:09:39;;;;;;;3.72;1.10;;;;;;;32.96;29.84;97521.72;5035565;28;20025;-85
2021/06/21 03:12:07;;;;;;;2.28;1.23;;;;;;;32.69;30.40;97525.97;5026702;28;20531;-85
2021/06/21 03:14:33;;;;;;;1.60;0.85;;;;;;;31.50;32.39;97534.31;5023012;28;20120;-85
2021/06/21 03:17:06;;;;;;;2.75;1.60;;;;;;;31.42;33.11;97531.13;5020838;28;20034;-85
2021/06/21 03:19:32;;;;;;;2.33;1.52;;;;;;;31.71;32.19;97530.19;5029480;28;20034;-85
2021/06/21 03:21:59;;;;;;;3.25;1.30;;;;;;;32.21;31.54;97521.41;5023563;28;20026;-84
2021/06/21 03:24:26;;;;;;;2.35;0.73;;;;;;;33.44;29.13;97530.28;5027872;28;20088;-85
2021/06/21 03:26:52;;;;;;;2.67;1.20;;;;;;;34.34;27.87;97530.00;5028514;28;20036;-85
2021/06/21 03:29:20;;;;;;;1.20;1.10;;;;;;;34.97;27.12;97540.88;5027624;28;20047;-85
2021/06/21 03:31:49;;;;;;;4.32;1.40;;;;;;;35.22;26.85;97539.78;5024437;28;20026;-85
2021/06/21 03:34:17;;;;;;;2.25;1.20;;;;;;;35.12;26.82;97547.09;5027847;28;20034;-85
2021/06/21 03:36:43;;;;;;;1.33;1.10;;;;;;;35.03;27.66;97538.81;5030374;28;20025;-84
2021/06/21 03:39:09;;;;;;;1.67;1.15;;;;;;;35.18;27.66;97536.44;5021038;28;20038;-84
2021/06/21 03:41:36;;;;;;;1.58;0.95;;;;;;;35.61;27.28;97546.19;5027663;28;20104;-84
2021/06/21 03:44:02;;;;;;;1.23;1.13;;;;;;;36.18;26.18;97544.56;5028952;28;20388;-84
2021/06/21 03:46:29;;;;;;;1.67;0.90;;;;;;;36.62;25.16;97538.53;5015777;28;20417;-84
2021/06/21 03:48:56;;;;;;;1.73;0.90;;;;;;;36.62;25.70;97541.38;5032499;28;20033;-84
2021/06/21 03:51:22;;;;;;;1.30;0.90;;;;;;;36.50;25.83;97539.94;5031930;28;20099;-84
2021/06/21 03:53:49;;;;;;;2.08;1.00;;;;;;;36.50;25.63;97539.94;5021423;28;20034;-84
2021/06/21 03:56:15;;;;;;;2.45;1.38;;;;;;;36.00;26.60;97543.91;5021284;28;20041;-84
2021/06/21 03:58:41;;;;;;;1.80;1.10;;;;;;;35.30;27.99;97535.88;5021414;28;179655;-84
2021/06/21 04:01:07;;;;;;;4.00;1.80;;;;;;;34.96;28.25;97528.66;5023948;28;20048;-84
2021/06/21 04:03:33;;;;;;;5.40;1.50;;;;;;;35.32;27.86;97533.28;5021664;28;20029;-84
2021/06/21 04:06:00;;;;;;;5.00;0.93;;;;;;;35.36;27.44;97528.06;5020121;28;20420;-84
2021/06/21 04:08:26;;;;;;;6.32;1.10;;;;;;;35.62;27.06;97532.66;5022984;28;20029;-84
2021/06/21 04:10:52;;;;;;;0.90;0.90;;;;;;;36.22;27.17;97539.38;5021449;28;20473;-83
2021/06/21 04:13:19;;;;;;;1.75;1.02;;;;;;;36.19;26.79;97541.19;5021089;28;20048;-84
2021/06/21 04:15:46;;;;;;;2.65;1.27;;;;;;;35.38;27.66;97536.13;5024649;28;20052;-84
2021/06/21 04:18:15;;;;;;;1.95;0.82;;;;;;;35.36;27.87;97541.56;5023298;28;20486;-84
2021/06/21 04:20:43;;;;;;;2.30;0.90;;;;;;;36.05;27.33;97540.25;5021582;28;20082;-84
2021/06/21 04:23:10;;;;;;;2.47;0.93;;;;;;;36.14;27.18;97541.22;5020937;28;20494;-84
2021/06/21 04:25:37;;;;;;;1.30;0.95;;;;;;;36.45;26.55;97537.91;5026553;28;20413;-84
2021/06/21 04:28:05;;;;;;;1.20;0.85;;;;;;;36.80;26.61;97537.88;5023961;28;20068;-84
2021/06/21 04:30:32;;;;;;;1.92;0.90;;;;;;;37.33;26.29;97539.13;5017953;28;20029;-84
2021/06/21 04:32:58;;;;;;;4.22;0.70;;;;;;;37.83;25.31;97538.56;5028970;28;20042;-84
2021/06/21 04:35:26;;;;;;;1.23;0.82;;;;;;;38.18;24.58;97543.28;5032178;28;20053;-84
2021/06/21 04:37:55;;;;;;;4.53;0.70;;;;;;;38.22;24.67;97546.59;5020565;28;20125;-84
2021/06/21 04:40:25;;;;;;;2.17;0.73;;;;;;;38.22;24.88;97544.50;5029194;28;20117;-84
2021/06/21 04:42:51;;;;;;;1.70;0.80;;;;;;;38.47;24.51;97548.84;5025718;28;20033;-85
2021/06/21 04:45:18;;;;;;;0.73;0.70;;;;;;;38.42;24.62;97546.81;5019782;28;20443;-85
2021/06/21 04:47:45;;;;;;;1.05;1.05;;;;;;;38.31;24.34;97557.69;5025067;28;20030;-84
2021/06/21 04:50:13;;;;;;;0.95;0.82;;;;;;;37.86;25.25;97551.81;5020299;28;20030;-84
2021/06/21 04:52:41;;;;;;;2.60;0.73;;;;;;;37.88;25.52;97549.19;5027222;28;20041;-84
2021/06/21 04:55:10;;;;;;;3.15;1.30;;;;;;;37.53;25.69;97552.22;5032384;28;20384;-84
2021/06/21 04:57:36;;;;;;;3.80;1.23;;;;;;;37.50;25.90;97554.06;5032470;28;20033;-85
2021/06/21 05:00:08;;;;;;;0.60;0.60;;;;;;;37.80;26.20;97553.94;5030789;28;20131;-84
2021/06/21 05:02:34;;;;;;;0.60;0.60;;;;;;;37.89;25.48;97550.72;5025913;28;20037;-84
2021/06/21 05:05:00;;;;;;;0.80;0.75;;;;;;;37.92;25.60;97547.56;5027978;28;20053;-85
2021/06/21 05:07:26;;;;;;;0.73;0.73;;;;;;;37.75;25.78;97551.94;5030176;28;20915;-84
2021/06/21 05:09:53;;;;;;;1.65;0.68;;;;;;;38.15;25.32;97556.63;5021817;28;20038;-83
2021/06/21 05:12:19;;;;;;;4.25;0.98;;;;;;;37.71;25.14;97551.47;5055763;28;20505;-82
2021/06/21 05:14:45;;;;;;;1.48;0.82;;;;;;;38.00;25.19;97551.34;5024284;28;20044;-84
2021/06/21 05:17:12;;;;;;;1.30;0.85;;;;;;;38.17;25.27;97551.09;5024711;28;20034;-84
2021/06/21 05:19:38;;;;;;;2.15;0.60;;;;;;;38.42;24.84;97543.94;5024877;28;20550;-85
2021/06/21 05:22:05;;;;;;;1.25;0.60;;;;;;;38.88;24.40;97554.19;5025662;28;20489;-83
2021/06/21 05:24:33;;;;;;;0.73;0.57;;;;;;;39.13;24.08;97555.53;5032110;28;20030;-83
2021/06/21 05:26:59;;;;;;;1.95;0.45;;;;;;;38.59;24.41;97558.81;5027751;28;20029;-83
2021/06/21 05:29:25;;;;;;;3.30;1.08;;;;;;;38.15;24.75;97562.34;5031472;28;20493;-83
2021/06/21 05:31:51;;;;;;;3.08;0.68;;;;;;;38.30;25.17;97577.00;5031936;28;20112;-83
2021/06/21 05:34:17;;;;;;;0.75;0.60;;;;;;;38.33;24.70;97569.41;5031933;28;20371;-83
2021/06/21 05:36:43;;;;;;;0.82;0.60;;;;;;;38.70;25.46;97566.44;5029524;28;20400;-83
2021/06/21 05:39:10;;;;;;;5.90;1.45;;;;;;;38.23;25.14;97563.25;5031378;28;20033;-83
2021/06/21 05:41:36;;;;;;;2.60;0.82;;;;;;;38.15;25.32;97565.22;5021348;28;20049;-82
2021/06/21 05:44:03;;;;;;;1.98;0.70;;;;;;;37.92;26.26;97563.97;5023851;28;20030;-82
2021/06/21 05:46:29;;;;;;;0.75;0.50;;;;;;;37.90;25.77;97553.03;5030227;28;20073;-82
2021/06/21 05:48:55;;;;;;;1.15;0.70;;;;;;;37.77;26.14;97561.53;5025162;28;20037;-83
2021/06/21 05:51:22;;;;;;;0.80;0.80;;;;;;;38.32;24.61;97551.44;5033921;28;20030;-83
2021/06/21 05:53:48;;;;;;;1.48;0.43;;;;;;;38.54;24.39;97553.16;5025689;28;20116;-82
2021/06/21 05:56:16;;;;;;;0.98;0.60;;;;;;;39.03;24.45;97556.50;5021886;28;20033;-83
2021/06/21 05:58:42;;;;;;;1.02;0.65;;;;;;;39.33;24.54;97551.25;5018228;28;20044;-83
2021/06/21 06:01:09;;;;;;;2.00;0.77;;;;;;;38.59;24.46;97546.56;5023377;28;20470;-82
2021/06/21 06:03:35;;;;;;;1.27;0.52;;;;;;;38.63;24.39;97549.88;5032076;28;20039;-82
2021/06/21 06:06:02;;;;;;;0.93;0.90;;;;;;;37.27;25.84;97547.78;5021876;28;20029;-82
2021/06/21 06:08:28;;;;;;;1.45;0.70;;;;;;;37.58;26.15;97548.50;5026540;28;20083;-82
2021/06/21 06:10:54;;;;;;;1.45;0.90;;;;;;;38.19;25.05;97550.53;5023088;28;20448;-83
2021/06/21 06:13:21;;;;;;;1.50;0.60;;;;;;;38.70;24.44;97558.63;5030133;28;20030;-82
2021/06/21 06:15:47;;;;;;;2.30;1.17;;;;;;;38.42;25.25;97558.28;5024923;28;20027;-82
2021/06/21 06:18:13;;;;;;;0.93;0.60;;;;;;;39.14;24.76;97551.31;5023766;28;20600;-82
2021/06/21 06:20:39;;;;;;;4.43;1.20;;;;;;;38.69;24.42;97548.47;5027378;28;20030;-82
2021/06/21 06:23:05;;;;;;;1.33;1.23;;;;;;;38.24;25.17;97546.81;5028685;28;20037;-82
2021/06/21 06:25:32;;;;;;;2.60;1.00;;;;;;;36.83;27.25;97541.75;5018822;28;20033;-82
2021/06/21 06:27:59;;;;;;;0.85;0.82;;;;;;;36.26;28.40;97552.06;5022677;28;20034;-82
2021/06/21 06:30:26;;;;;;;3.97;1.20;;;;;;;36.03;28.63;97550.66;5024551;28;20485;-82
2021/06/21 06:32:52;;;;;;;2.97;0.80;;;;;;;37.03;27.56;97544.16;5026196;28;20104;-82
2021/06/21 06:35:18;;;;;;;1.30;1.20;;;;;;;37.42;26.84;97538.00;5023508;28;20488;-82
2021/06/21 06:37:46;;;;;;;1.60;1.23;;;;;;;37.60;26.33;97535.19;5031025;28;20033;-82
2021/06/21 06:40:13;;;;;;;1.10;0.93;;;;;;;38.21;25.86;97542.94;5029245;28;20061;-83
2021/06/21 06:42:39;;;;;;;3.40;0.80;;;;;;;39.30;24.52;97540.88;5024149;28;20552;-83
2021/06/21 06:45:06;;;;;;;2.42;0.98;;;;;;;39.56;23.57;97537.22;5016185;28;20029;-82
2021/06/21 06:47:32;;;;;;;3.60;0.90;;;;;;;39.44;23.44;97544.53;5025199;28;20512;-83
2021/06/21 06:49:59;;;;;;;2.38;0.95;;;;;;;38.79;24.71;97533.72;5028875;28;20030;-82
2021/06/21 06:52:25;;;;;;;3.03;0.95;;;;;;;38.96;24.49;97525.56;5022402;28;20030;-82
2021/06/21 06:57:43;;;;;;;0.63;0.63;;;;;;;38.83;25.37;97522.69;5018263;28;20033;-83
2021/06/21 07:00:13;;;;;;;1.05;0.75;;;;;;;39.48;23.99;97519.09;5031193;28;20084;-83
2021/06/21 07:02:46;;;;;;;1.50;1.00;;;;;;;38.42;24.79;97523.09;5027267;28;20060;-83
2021/06/21 07:05:12;;;;;;;1.70;1.05;;;;;;;38.27;25.51;97528.53;5027323;28;20046;-82
2021/06/21 07:07:38;;;;;;;1.88;0.93;;;;;;;38.62;25.28;97534.75;5031833;28;20061;-82
2021/06/21 07:10:05;;;;;;;1.95;1.00;;;;;;;38.30;25.53;97531.09;5034369;28;20044;-82
2021/06/21 07:12:31;;;;;;;2.05;0.80;;;;;;;38.18;24.94;97526.84;5016134;28;20045;-83
2021/06/21 07:14:58;;;;;;;0.73;0.70;;;;;;;38.99;25.35;97525.25;5053587;28;20425;-82
2021/06/21 07:17:24;;;;;;;1.10;0.50;;;;;;;39.72;22.85;97522.53;5032530;28;20049;-83
2021/06/21 07:19:50;;;;;;;4.10;1.05;;;;;;;37.89;25.57;97527.78;5031530;28;20437;-83
2021/06/21 07:22:16;;;;;;;1.45;1.35;;;;;;;38.24;25.81;97529.63;5021351;28;20066;-83
2021/06/21 07:24:42;;;;;;;0.70;0.70;;;;;;;38.75;24.67;97528.28;5057963;28;20030;-83
2021/06/21 07:27:09;;;;;;;2.85;1.00;;;;;;;37.81;26.32;97526.84;5022399;28;20112;-83
2021/06/21 07:29:35;;;;;;;0.93;0.85;;;;;;;38.16;27.65;97522.97;5027040;28;20041;-82
2021/06/21 07:32:01;;;;;;;3.33;1.08;;;;;;;37.86;26.48;97520.28;5027219;28;20029;-82
2021/06/21 07:34:27;;;;;;;1.23;0.82;;;;;;;38.28;26.35;97516.53;5020947;28;20034;-83
2021/06/21 07:36:53;;;;;;;3.05;0.90;;;;;;;38.17;26.41;97516.69;5022464;28;20567;-83
2021/06/21 07:39:20;;;;;;;0.90;0.85;;;;;;;37.83;26.52;97512.78;5029455;28;20044;-83
2021/06/21 07:41:47;;;;;;;1.10;1.00;;;;;;;36.70;27.37;97514.53;5025030;28;20493;-83
2021/06/21 07:44:14;;;;;;;1.88;1.13;;;;;;;38.04;27.06;97510.91;5020895;28;20030;-83
2021/06/21 07:46:40;;;;;;;3.55;0.88;;;;;;;39.03;24.76;97505.59;5025099;28;20470;-83
2021/06/21 07:49:06;;;;;;;1.75;1.05;;;;;;;39.11;24.98;97502.84;5024860;28;20029;-83
2021/06/21 07:51:32;;;;;;;2.80;1.00;;;;;;;39.46;25.06;97505.28;5020076;28;20042;-83
2021/06/21 07:53:58;;;;;;;0.85;0.80;;;;;;;39.52;24.76;97510.91;5039213;28;20056;-82
2021/06/21 07:56:24;;;;;;;4.35;0.85;;;;;;;39.25;24.16;97516.69;5032884;28;20096;-83
2021/06/21 07:58:51;;;;;;;0.90;0.80;;;;;;;39.45;24.57;97517.31;5031894;28;20038;-83
2021/06/21 08:01:17;;;;;;;3.83;0.82;;;;;;;39.67;24.06;97520.53;5032913;28;20025;-83
2021/06/21 08:03:44;;;;;;;1.75;0.60;;;;;;;39.88;24.58;97526.34;5029716;28;20029;-83
2021/06/21 08:06:11;;;;;;;2.90;0.77;;;;;;;38.92;24.99;97516.50;5029072;28;20541;-83
2021/06/21 08:08:42;;;;;;;0.57;0.57;;;;;;;39.23;24.73;97504.94;5014620;28;20485;-83
2021/06/21 08:11:12;;;;;;;3.13;0.80;;;;;;;39.31;24.95;97508.72;5020929;28;20029;-83
2021/06/21 08:13:38;;;;;;;1.03;0.73;;;;;;;40.15;22.77;97512.69;5034051;28;20470;-83
2021/06/21 08:16:05;;;;;;;0.82;0.70;;;;;;;40.13;23.24;97516.13;5029862;28;20124;-83
2021/06/21 08:18:31;;;;;;;1.08;0.50;;;;;;;40.61;22.47;97518.34;5025412;28;20087;-82
2021/06/21 08:20:58;;;;;;;1.05;0.57;;;;;;;41.07;22.27;97530.28;5031880;28;20025;-84
2021/06/21 08:23:25;;;;;;;0.50;0.50;;;;;;;40.47;23.03;97525.50;5023961;28;20038;-82
2021/06/21 08:25:51;;;;;;;1.35;0.55;;;;;;;40.87;22.07;97525.34;5026734;28;20041;-82
2021/06/21 08:28:17;;;;;;;2.28;0.55;;;;;;;40.78;21.92;97523.69;5017720;28;20084;-83
2021/06/21 08:30:46;;;;;;;0.65;0.55;;;;;;;40.79;21.45;97527.34;5025936;28;20096;-82
2021/06/21 08:33:13;;;;;;;2.75;0.75;;;;;;;39.65;23.42;97520.34;5022490;28;20524;-83
2021/06/21 08:35:39;;;;;;;2.75;0.60;;;;;;;39.49;24.09;97512.03;5019195;28;20080;-83
2021/06/21 08:38:06;;;;;;;2.25;0.80;;;;;;;39.81;23.70;97519.19;5017740;28;20103;-82
2021/06/21 08:40:36;;;;;;;2.35;0.60;;;;;;;39.56;22.58;97512.09;5025579;28;20053;-83
2021/06/21 08:43:03;;;;;;;2.85;0.70;;;;;;;40.12;22.08;97520.31;5023362;28;20427;-83
2021/06/21 08:45:31;;;;;;;1.15;0.63;;;;;;;39.51;23.86;97515.13;5023687;28;20438;-82
2021/06/21 08:47:58;;;;;;;2.65;0.90;;;;;;;39.23;23.97;97513.56;5030524;28;20043;-82
2021/06/21 08:50:25;;;;;;;0.47;0.47;;;;;;;39.37;23.08;97511.50;5026434;28;20044;-83
2021/06/21 08:52:52;;;;;;;2.40;0.73;;;;;;;39.30;23.47;97510.03;5023628;28;20041;-83
2021/06/21 08:55:19;;;;;;;0.82;0.50;;;;;;;38.64;25.06;97509.16;5018885;28;20033;-83
2021/06/21 08:57:47;;;;;;;3.33;0.60;;;;;;;37.85;23.72;97508.06;5026278;28;20037;-83
2021/06/21 09:00:15;;;;;;;2.67;1.08;;;;;;;37.84;25.22;97511.44;5023087;28;20386;-83
2021/06/21 09:02:41;;;;;;;4.15;0.85;;;;;;;37.08;25.80;97508.97;5022432;28;20033;-82
2021/06/21 09:05:09;;;;;;;5.05;0.95;;;;;;;37.29;25.50;97510.81;5015826;28;20056;-83
2021/06/21 09:07:36;;;;;;;1.00;0.50;;;;;;;38.69;22.74;97514.03;5029798;28;20037;-83
2021/06/21 09:10:08;;;;;;;7.38;0.70;;;;;;;39.43;23.41;97514.22;5022071;28;20029;-83
2021/06/21 09:12:34;;;;;;;1.65;0.50;;;;;;;39.59;21.53;97508.16;5021580;28;20042;-83
2021/06/21 09:15:07;;;;;;;7.90;0.73;;;;;;;39.01;23.27;97498.84;5024537;28;20065;-83
2021/06/21 09:17:37;;;;;;;2.40;0.70;;;;;;;37.89;26.12;97504.84;5021825;28;20049;-83
2021/06/21 09:20:05;;;;;;;;;;;;;;;38.41;24.37;97504.34;5018745;28;20030;-83
2021/06/21 09:22:42;;;;;;;5.95;0.88;;;;;;;38.52;23.83;97510.66;5025635;28;19917;-83
2021/06/21 09:25:15;;;;;;;1.48;0.60;;;;;;;39.55;21.97;97507.72;5027796;28;20038;-83
2021/06/21 09:27:52;;;;;;;0.40;0.40;;;;;;;40.29;23.26;97511.28;5021498;28;20393;-83
2021/06/21 09:30:19;;;;;;;0.95;0.40;;;;;;;41.22;21.64;97508.09;5024955;28;20053;-83
2021/06/21 09:32:48;;;;;;;5.07;0.80;;;;;;;41.34;20.58;97500.72;5024912;28;20056;-82
2021/06/21 09:35:29;;;;;;;2.95;0.82;;;;;;;40.60;21.50;97501.66;5024982;28;20038;-82
2021/06/21 09:38:14;;;;;;;2.10;0.60;;;;;;;39.74;23.10;97501.84;5024065;28;20120;-82
2021/06/21 09:41:00;;;;;;;0.98;0.50;;;;;;;39.67;22.56;97506.16;5021902;28;20038;-82
2021/06/21 09:43:32;;;;;;;3.22;0.50;;;;;;;40.54;22.42;97498.16;5030769;28;20030;-81
2021/06/21 09:46:02;;;;;;;4.05;0.60;;;;;;;40.43;23.46;97496.31;5023767;28;20482;-82
2021/06/21 09:48:34;;;;;;;1.10;0.57;;;;;;;40.12;22.82;97497.31;5051667;28;20032;-82
2021/06/21 09:51:16;;;;;;;5.78;0.60;;;;;;;40.28;21.59;97498.25;5032802;28;20037;-83
2021/06/21 09:53:52;;;;;;;1.85;0.60;;;;;;;40.82;21.54;97503.94;5032688;28;20478;-82
2021/06/21 09:56:45;;;;;;;0.88;0.47;;;;;;;41.10;20.60;97503.22;5025201;28;20041;-82
2021/06/21 09:59:35;;;;;;;4.70;0.80;;;;;;;40.61;21.29;97506.09;5029124;28;20054;-82
2021/06/21 10:02:02;;;;;;;2.00;0.60;;;;;;;41.33;21.18;97490.50;5016284;28;20030;-82
2021/06/21 10:04:29;;;;;;;1.75;0.93;;;;;;;39.76;22.16;97487.69;5031590;28;20309;-82
2021/06/21 10:06:55;;;;;;;3.88;0.60;;;;;;;40.25;22.12;97488.63;5026210;28;20037;-82
2021/06/21 10:09:21;;;;;;;1.00;0.45;;;;;;;40.74;21.39;97488.72;5028451;28;20040;-81
2021/06/21 10:11:47;;;;;;;1.83;0.52;;;;;;;40.24;21.40;97483.44;5022999;28;20044;-82
2021/06/21 10:14:16;;;;;;;5.30;0.73;;;;;;;40.08;22.79;97485.38;5026365;28;20041;-82
2021/06/21 10:16:44;;;;;;;1.85;0.60;;;;;;;40.34;23.07;97478.75;5023170;28;20516;-83
2021/06/21 10:19:12;;;;;;;1.85;0.55;;;;;;;41.30;23.36;97479.38;5024843;28;20032;-84
2021/06/21 10:21:40;;;;;;;5.63;1.05;;;;;;;40.53;22.65;97476.44;5020874;28;20037;-84
2021/06/21 10:24:08;;;;;;;2.15;0.90;;;;;;;39.93;23.16;97471.56;5022808;28;20034;-86
2021/06/21 10:26:37;;;;;;;3.00;0.60;;;;;;;40.28;21.56;97476.00;5022065;28;20042;-85
2021/06/21 10:29:04;;;;;;;1.77;0.50;;;;;;;41.42;21.58;97479.81;5020765;28;20034;-82
2021/06/21 10:31:31;;;;;;;1.15;0.60;;;;;;;40.84;22.87;97481.13;5034894;28;20036;-88
2021/06/21 10:33:59;;;;;;;1.15;0.70;;;;;;;40.88;21.49;97481.56;5033028;28;20038;-86
2021/06/21 10:36:53;;;;;;;1.02;0.93;;;;;;;39.99;21.82;97472.22;5032045;28;20041;-89
2021/06/21 10:39:27;;;;;;;4.43;0.77;;;;;;;39.06;24.21;97475.00;5024889;28;20050;-83
2021/06/21 10:42:06;;;;;;;3.03;0.90;;;;;;;38.74;23.05;97474.31;5027611;28;20034;-84
2021/06/21 10:44:56;;;;;;;2.63;0.80;;;;;;;38.82;23.47;97470.22;5032093;28;20099;-83
2021/06/21 10:47:40;;;;;;;3.58;0.60;;;;;;;39.59;23.78;97472.88;5026294;28;20042;-84
2021/06/21 10:50:16;;;;;;;2.33;0.65;;;;;;;40.34;20.81;97461.47;5022698;28;20029;-84
2021/06/21 10:52:47;;;;;;;5.40;1.50;;;;;;;40.26;21.95;97458.53;5026175;28;20048;-84
2021/06/21 10:55:26;;;;;;;3.03;0.70;;;;;;;40.23;23.59;97456.00;5029811;28;20071;-84
2021/06/21 10:58:19;;;;;;;0.85;0.85;;;;;;;40.51;22.11;97456.09;5027308;28;20042;-84
2021/06/21 11:00:49;;;;;;;6.40;0.70;;;;;;;41.11;20.57;97453.69;5024242;28;20049;-84
2021/06/21 11:03:33;;;;;;;2.17;0.57;;;;;;;39.39;20.99;97457.13;5020376;28;20108;-85
2021/06/21 11:06:21;;;;;;;1.88;0.70;;;;;;;38.58;22.48;97448.19;5025304;28;20045;-84
2021/06/21 11:08:54;;;;;;;3.72;0.80;;;;;;;38.81;23.78;97445.75;5037432;28;20157;-84
2021/06/21 11:11:39;;;;;;;5.18;0.82;;;;;;;39.92;21.20;97435.53;5024303;28;20026;-83
2021/06/21 11:14:29;;;;;;;1.27;0.63;;;;;;;39.64;21.82;97444.03;5032324;28;20136;-84
2021/06/21 11:17:19;;;;;;;5.78;0.85;;;;;;;38.76;21.80;97445.84;5027220;28;20046;-83
2021/06/21 11:19:45;;;;;;;3.53;0.85;;;;;;;40.62;19.89;97436.44;5022062;28;20042;-83
2021/06/21 11:22:13;;;;;;;0.65;0.65;;;;;;;41.13;20.72;97436.59;5034964;28;20034;-83
2021/06/21 11:24:39;;;;;;;2.53;0.68;;;;;;;40.57;20.51;97434.47;5027933;28;20029;-83
2021/06/21 11:27:08;;;;;;;2.97;0.45;;;;;;;41.14;20.46;97437.38;5028212;28;20029;-83
2021/06/21 11:29:37;;;;;;;1.25;0.60;;;;;;;40.52;21.16;97434.59;5022425;28;20057;-83
2021/06/21 11:32:05;;;;;;;2.08;0.65;;;;;;;40.31;22.47;97440.34;5020536;28;20185;-84
2021/06/21 11:34:47;;;;;;;1.60;0.50;;;;;;;40.42;21.25;97419.16;5027184;28;20516;-83
2021/06/21 11:37:44;;;;;;;3.83;0.45;;;;;;;40.32;21.23;97426.75;5021597;28;20124;-83
2021/06/21 11:40:15;;;;;;;1.17;1.02;;;;;;;39.54;22.39;97422.81;5025558;28;22604;-83
2021/06/21 11:42:56;;;;;;;5.20;0.70;;;;;;;39.01;21.71;97424.97;5024304;28;20098;-83
2021/06/21 11:45:54;;;;;;;2.55;0.50;;;;;;;39.41;21.45;97419.97;5026386;28;20037;-83
2021/06/21 11:48:23;;;;;;;1.33;0.60;;;;;;;39.08;21.99;97412.81;5028429;28;20064;-84